Persepolis — SVCR3 — position and weather

sailwx.info

Track history (hours):
 
Tides and Currents Weather Stations Pressure Air Temp Water Temp Dewpoint Dewpoint Depression Visibility Wind Speed Wind Dir Waves Ship Positions

Persepolis

Last reported at 2018-Jun-23 06:59 UTC. Time now 2018-Jun-25 08:10 UTC.
Position N 27°48' W 096°51'.

Length 228 m; draft 12.8 m.

Type: Tanker. MMSI: 241529000.

Date/timePositionNaut miles runAvg speedWind from/ knotsBaromVisibWave heightAir tempDewpointWater temp
2018-Jun-23 06:59N 27°48' W 096°51'0 0.0
2018-Jun-23 06:23N 27°48' W 096°51'0 0.0
2018-Jun-23 05:59N 27°48' W 096°51'0 0.0
2018-Jun-23 05:17N 27°48' W 096°51'0 0.0
2018-Jun-23 04:59N 27°48' W 096°51'0 0.0
2018-Jun-23 04:29N 27°48' W 096°51'0 0.0
2018-Jun-23 03:59N 27°48' W 096°51'0 0.0
2018-Jun-23 03:26N 27°48' W 096°51'  
2018-Jun-14 00:10N 09°32' W 079°50'411.5
2018-Jun-13 23:49N 09°29' W 079°53'410.9
2018-Jun-13 23:29N 09°27' W 079°55'510.6
2018-Jun-13 23:00N 09°21' W 079°55'4 7.7
2018-Jun-13 22:30N 09°18' W 079°55'1 2.0
2018-Jun-13 21:58N 09°16' W 079°55'0 0.3
2018-Jun-13 21:15N 09°16' W 079°55'0 0.4
2018-Jun-13 20:55N 09°16' W 079°55'0 0.4
2018-Jun-13 20:30N 09°16' W 079°55'1 0.9
2018-Jun-13 19:43N 09°15' W 079°55'1 3.5
2018-Jun-13 19:26N 09°14' W 079°55'  
Track history (hours):
 
Tides and Currents Weather Stations Pressure Air Temp Water Temp Dewpoint Dewpoint Depression Visibility Wind Speed Wind Dir Waves Ship Positions

Persepolis

Last reported at 2018-Jun-23 06:59 UTC. Time now 2018-Jun-25 08:10 UTC.
Position N 27°48' W 096°51'.

Length 228 m; draft 12.8 m.

Type: Tanker. MMSI: 241529000.

Date/timePositionNaut miles runAvg speedWind from/ knotsBaromVisibWave heightAir tempDewpointWater temp
2018-Jun-23 06:59N 27°48' W 096°51'0 0.0
2018-Jun-23 06:23N 27°48' W 096°51'0 0.0
2018-Jun-23 05:59N 27°48' W 096°51'0 0.0
2018-Jun-23 05:17N 27°48' W 096°51'0 0.0
2018-Jun-23 04:59N 27°48' W 096°51'0 0.0
2018-Jun-23 04:29N 27°48' W 096°51'0 0.0
2018-Jun-23 03:59N 27°48' W 096°51'0 0.0
2018-Jun-23 03:26N 27°48' W 096°51'  
2018-Jun-14 00:10N 09°32' W 079°50'411.5
2018-Jun-13 23:49N 09°29' W 079°53'410.9
2018-Jun-13 23:29N 09°27' W 079°55'510.6
2018-Jun-13 23:00N 09°21' W 079°55'4 7.7
2018-Jun-13 22:30N 09°18' W 079°55'1 2.0
2018-Jun-13 21:58N 09°16' W 079°55'0 0.3
2018-Jun-13 21:15N 09°16' W 079°55'0 0.4
2018-Jun-13 20:55N 09°16' W 079°55'0 0.4
2018-Jun-13 20:30N 09°16' W 079°55'1 0.9
2018-Jun-13 19:43N 09°15' W 079°55'1 3.5
2018-Jun-13 19:26N 09°14' W 079°55'  

Dump ship's entire track history